Athens Township, Pennsylvania
Current Conditions -  °F | °C
As of 8:53 AM on Monday 24 Nov 2014 (Local Time) from KBGM Reporting Station
Overcast Overcast  
Wind Chill: 15°   Ceiling: 6500
Heat Index: 15°   Visibility: 10mi
Dew Point: 13°   Wind: 12mph
Humidity: 87%   Direction: 200°SSW
Pressure: 29.53"   Gusts: 25mph
Location:  41.9771°N, 76.4144°W
Report Text: KBGM 241353Z 20010G22KT 10SM FEW014 SCT026 OVC065 15/13 A2953 RMK AO2 RAB23E48 SLP000 P0001 T01500128
Loading
Personal Weather Stations






























Interactive Weather Map New forecast layout! Learn more

10-Day Weather Forecast

Advertisements
Track Severe Weather on mobile